KCNY/CNY METAR and TAF weather

Enter ICAO airport designator
Station Type Date Time Source
KCNY METAR 2019/06/16 05:53 UTC NOAA

KCNY 160553Z AUTO 00000KT 10SM SCT110 23/01 A2993 RMK AO2 SLP070 T02280011 10311 20222 50008


Station Type Date Time Source
KCNY Decoded METAR 2019/06/16 05:53 UTC NOAA

MOAB CANYONLANDS FIELD, UT, United States (KCNY) 38-46N 109-45W 1390M
Jun 16, 2019 - 01:53 AM EDT / 2019.06.16 0553 UTC
Wind: Calm:0
Visibility: 10 mile(s):0
Sky conditions: partly cloudy
Temperature: 73.0 F (22.8 C)
Dew Point: 34.0 F (1.1 C)
Relative Humidity: 23%
Pressure (altimeter): 29.93 in. Hg (1013 hPa)
Pressure tendency: 0.02 inches (0.8 hPa) higher than three hours ago
ob: KCNY 160553Z AUTO 00000KT 10SM SCT110 23/01 A2993 RMK AO2 SLP070 T02280011 10311 20222 50008
cycle: 6

Station Type Date Time Source
KCNY TAF 2019/06/16 06:30 UTC NOAA

TAF KCNY 160527Z 1606/1706 VRB05KT P6SM FEW120 FEW250
FM161900 29008KT P6SM FEW120 SCT250
FM162100 28010G18KT P6SM SCT120 BKN250

Example: see airport list